Member area
Imprimable
Grand-Halleux, 22/04/2019, BEL - La Hallonienne
List of reports > 75km - Result
Search: Page: [1] 2
697 Entries
 
Complains are not accepted anymore. Results are final.
Category
PosNrLicenceNameAgeNATTeamTimeTkmMoy.PlaceNameCity
1.701010002644242NISSEN Sören35LUXTEAM STEVENS - 2:51:292:18 26.241ma1BETTENDORF
2.711310005345993CARABIN Sébastien30BELMÉRIDA WALLONIE2:54:512:20 25.742ma1ANDRIMONT
3.700410003926561MASSAER Joris37BELTEAM8S MOUNTAIN2:55:012:21 25.713ma1LEERBEEK
4.721810009571355VERHOEVEN Roel27NLDKMC MOUNTAINBIK2:55:012:21 25.711eliVINKEL
5.719910009521744TURELUREN Arne25BELGLAUDIS-URMALE 2:58:182:23 25.242eliLUMMEN
6.724310010093337CLASSENS Bart27NLDTHIJSHENDRIKS.N3:01:002:25 24.863eliLINDEN
7.710410015776426VAN DER SANDE Rick21BELTEL&CO CYCLING 3:01:042:25 24.851eshHAACHT
8.766710008814957VANPOL Nick23BEL3:01:062:25 24.854eliPAAL
9.7115100 094 448 51VANDEN HAESEVELDE Rob23BELINDIVIDUEEL3:01:202:26 24.825eliOUDENAARDE
10.710110065261075VAN DEN BERGH Matthias27BELTEL&CO CYCLING 3:02:132:26 24.706eliKESSEL-LO
11.710210008879524MOS Gerben28NLDWV DE IJSSELSTR3:03:192:27 24.557eliMEPPEL
12.769010005771985VAN BOXSTAEL Stijn33BELINDIVIDUEEL3:03:232:27 24.544ma1OORDEGEM
13.724110009774550STARKER Sascha30DEUSTENGER BIKE TE3:03:462:28 24.495ma1HEPPENHEIM
14.700610016398539DONY Maxime27BELTEAM MADMAX - B3:04:282:28 24.408eliMONT-SAINT-GUIBERT
15.7125100 128 237 84HUYGEN Tijs25BELINDIVIDUEEL3:04:282:28 24.409eliMORKHOVEN
16.723110036189973HÄUSER Paul21DEUBSV PROFIL HÜRT3:04:432:28 24.362eshHÜRTGENWALD
17.703110008128883CLOOSTERMANS Mathias25BELTEAM WILLIER FO3:04:542:28 24.3410eliKESSEL
18.718710010584805TEMPST Kurt48BELBIKE - INN3:05:102:29 24.301ma2LIER
19.713810003596559DELFOSSE Sebastien37BELDÉCATHLON CYCLI3:06:102:29 24.176ma1HERVE
20.706310012995354DE GRAAFF Christian37NLDRABBIT BIKESTOR3:06:562:30 24.077ma1WOUDRICHEM
21.719610015445919DESCHEEMAEKER Steven39BELVIND! CYCLING P3:07:402:31 23.988ma1GELUVELD
22.7088100 033 232 42PIROTTE Jo31BELINDIVIDUEEL3:07:532:31 23.959ma1PAAL
23.700810003504007BROEKMANS Arne41BELRAF'S BIKE TEAM3:08:412:31 23.852ma2HEUSDEN-ZOLDER
24.705710010090711DELAET Julien33BELCOMITÉ RÉGIONAL3:10:452:33 23.5910ma1LIMAL
25.712410008105544BRAM SaeysBELTRUST MTB TEAM3:10:512:33 23.581xxxAALST
26.720110061363901HUYSENTRUYT Bram26BELBIKESENSATION3:10:592:33 23.5611eliANZEGEM
27.7011100 023 851 70VANTORNOUT Klaas37BELLAEREMANS EDNIN3:11:012:33 23.5611ma1WEST VLAANDEREN
28.700110004313147WYNANTS Maarten37BELTEAM LOTTO.NL J3:11:032:33 23.5612ma1HELCHTEREN
29.762210065262186VERVLOESSEM Robin25BELRS BIKES RACING3:11:082:33 23.5512eliRIJMENAM
30.718110054540757VAN LEUFFELEN Peter35BELB-CYCLE3:11:182:34 23.5213ma1OEVEL
31.7685XXXXHENDERIECKX Kris42BELTEAMNARVIFLEX-N3:11:342:34 23.493ma2BELSELE
32.719410011882480JANSSENS Steven39BELPANACHE MTB TEA3:11:372:34 23.4814ma1WESTMEERBEEK
33.706710081704191KAULARD Mario33DEUTEAM FIREBIKE H3:12:112:34 23.4215ma1SIMMERATH
34.720610004265354VAN DE Ken42BELTEAM BIKESENSAT3:12:272:34 23.384ma2OPVELP / BELGIË
35.710710015777234ANTHUENIS Yenzy21BELDEBO -BIKES OLY3:12:592:35 23.323eshDAKNAM
36.723410010645328FINOULST Jan-Frederik27BELRED FLYING BIKE3:13:462:36 23.2213eliSINT-PAUWELS
37.712110016461385RICHARDEAU Arnaud26BELCOMITÉ RÉGIONAL3:14:532:36 23.0914eliPROFONDEVILLE
38.7157100 642 333 80FRANQUET Anthony18BELTEAM SUPERBIKER3:15:072:37 23.062xxxTHY-LE-BAUDUIN
39.705610009366039KAISE Julien24BELTOP CYCLE TEAM3:15:122:37 23.0615eliMAZY
40.7640SMISMANS Jef28BEL3:15:232:37 23.0316eliHALLE
41.716410015095204NYSSEN Kevin24BELTEAM2RACE3:16:432:38 22.8817eliGEMMENICH
42.707110016450675NIJS Steven34BELINDIVIDUEEL3:17:322:39 22.7816ma1RETIE
43.709410010002704COLONVAL Adrien30BELTEAM BIKE4-LIFE3:17:482:39 22.7517ma1JUMET
44.725210049967916LOUSTAUNAU Romain32BELTEAM SAN MAZUIN3:18:412:39 22.6518ma1BIERWART
45.7098100 896 497 07VAN DRIESSCHE Bart31BELKING PANDA3:19:522:40 22.5219ma1BAARDEGEM
46.703010077452763GODSCHALK Kris37BELMTB TEAM ROBARO3:20:322:41 22.4420ma1ARENDONK
47.725410061867893DUVIVIER Antoine33BELTEAM2RACE3:20:322:41 22.4421ma1AUBEL
48.712310077452561FAES Ief27BELINDIVIDUEEL3:21:082:41 22.3718eliARENDONK
49.713110077949988WELLEKENS Jan-Baptist35BEL3:21:142:41 22.3622ma1OUDENAARDE
50.763310011147809VAN WYNSBERGHE Maxime21BELTEAM SUPER BIKE3:21:312:42 22.334eshFLORENNES
51.7636MORIS Sven33BELVP CONSULTING Z3:22:172:42 22.2523ma1
52.715110015075194VAN UUM Lars21NLDSMART-DRY3:22:212:42 22.245eshHARDERWIJK
53.723810007473731WINDMOLDERS Roan40BEL3:22:232:42 22.245ma2DIEPENBEEK
54.722710770MESSING Jarno32NLDBAKKER RACING /3:22:342:43 22.2224ma1STEIN
55.725810001289575LIEVENS Erik40BEL3:22:372:43 22.216ma2GEEL
56.763510015071154FLAMEND Pieter36BELMASTER FRIENDS 3:22:372:43 22.2125ma1HASSELT
57.719310050888406MEYSMAN Michel43BELADAPP3:22:532:43 22.187ma2AFFLIGEM
58.7643MEERSCHAERT Maarten32BELORIGINAL BIKERS3:22:572:43 22.1726ma1
59.711110004518059FLION Jorgen33BELINDIVIDUEEL3:23:002:43 22.1727ma1LIEDEKERKE
60.716010016406219GEERTS Pieter31BELURMALE GLAUDIS 3:23:112:43 22.1528ma1LUMMEN
61.715610079590096BARTHOLOMEUS Jefrey27BELBIKE TEAM MEERH3:23:192:43 22.1319eliLAAKDAL
62.716810009837396DELCOUR Pierre33BELROCKRIDER BELGI3:23:212:43 22.1329ma1PECQ
63.724210013390226KOLB Constantin26DEUSTENGER BIKE TE3:23:282:43 22.1220eliGROß-UMSTADT
64.713210004479966WILLEMSENS Kris43BELBIKE INN HERENT3:23:392:43 22.108ma2BOOISCHOT
65.7365BRANDS Jeroen41NLDMTB ARNHEM3:24:412:44 21.999ma2ARNHEM
66.703410003385482LEGROS Melvin34BELMJ CYCLES TEAM3:24:572:44 21.9630ma1MONTIGNY-LE-TILLEUL
67.7390VANDERTHOMMEN Axel27BELALTITUDE TRAINI3:25:082:45 21.9421eliVERVIERS
68.764643169WIJCKMANS Kristof42BELAPRÈS-BIKERS3:25:322:45 21.9010ma2WIEKEVORST
69.708310014744485LHERMITE Emmanuel42FRACCVTT BADONVILL3:25:512:45 21.8611ma2ESSEY LES NANCY
70.702310016406017GEERSHEUVELS Toon19BELKEBC3:26:062:45 21.836eshBOECHOUT
71.722510027767343VERHENNE Benjamin31FRATOUQUET ACC3:26:102:45 21.8331ma1BONNINGUES LES ARDRES
72.719710023372940FICK Peter35NLDTWC MAASLANDSTE3:26:132:45 21.8232ma1TEUVEN
73.766310022775075KLEIJNEN Cyril36NLDX-TRACK.NL3:26:152:45 21.8233ma1DA MARGRATEN
74.719810012754672BOECKMANS Bart32BELBIKE-INN TEAM H3:26:232:46 21.8034ma1HERENTALS
75.718310065211464MERTENS Wim41BELBIKETEAM MEERHO3:26:412:46 21.7712ma2MEERHOUT
76.705810049800689DUBOIS Frederic45BEL3:26:422:46 21.7713ma2FEXHE LE HAUT CLOCHER
77.7153100 652 423 82HOUDMEYERS Stef29BELBIKE TEAM MEERH3:26:422:46 21.7722eliTESSENDERLO
78.701610051010058BRUNO Vasco43BELTEAM B613:26:432:46 21.7714ma2NEERPELT
79.721010009195580BULBO Vincent45BELSUPERBIKERS3:26:592:46 21.7415ma2ITTRE
80.7668VANPOL Niels23BELSCOTT3:27:012:46 21.7423eli
81.719510005740158BROUWER Gijs32NLDWSV DE ZWALUWEN3:27:292:46 21.6935ma1MAASTRICHT
82.7152100 652 618 83HEUSDENS NielsBELVANOMOBIL MTB C3:27:452:47 21.663xxxVLIEGVELDLAAN
83.7076NED 00206095VAN DER ZANDEN Mark48NLD3:27:592:47 21.6416ma2BOEKEL
84.702710086354232DEVOLDER Jonathan28BELTRUST MTB TEAM3:28:012:47 21.6324eliKORTRIJK
85.707810036114292VERTONGEN Jo42BELMTB OVERIJSE / 3:28:012:47 21.6317ma2OVERIJSE
86.719110051090284KASSEL Johannes24DEURADCLUB PFÄLZER3:28:022:47 21.6325eliRAMSTEIN-MIESENBACH
87.720410027170690BRACKMAN Samuel20BELUCBL3:28:082:47 21.627eshHARNONCOURT
88.705010089818041GRIFNEE Frederic41BEL3:28:192:47 21.6018ma2AUBEL
89.7200100 141 083 29DUPUIS Martin40BELROTWILD AGU RAC3:28:482:48 21.5519ma2COURT SAINT ETIENNE
90.722910 075 516 201BRUNCKHORST Ralf Peter50DEUNICOLAI BIKEBAU3:29:042:48 21.521ma3HEIMBACH
91.92HEMROULLE Johan24BELALTITUDE TRAINI3:29:072:48 21.5226eliMELEN
92.717910010170028ROSART Benjamin33BELTEAM BIKE4LIFE3:29:132:48 21.5136ma1LIGNY
93.711910 053 679 073HOFF René41DEUSIG KOBLENZ MTB3:29:202:48 21.5020ma2MAINZ-KASTEL
94.702910014363559PAULS Geoffrey27BELALTITUDE TRAINI3:29:282:48 21.4827eliGRIVEGNEE
95.7634VAN WIJMELBEKE Ben38BELVWB/KLAUWAERT C3:29:382:48 21.4737ma1KRUISHOUTEM
96.715410003594640DECLERCQ Wouter44BELTRUST MTB TEAM3:29:562:48 21.4421ma2RUDDERVOORDE
97.702510065240564JANNY Kenny32BELHOPDUVELS3:30:082:49 21.4238ma1TERNAT
98.701910014108127ALOFS Jean-Marie50BELTEAM BIKE4LIFE-3:30:172:49 21.402ma3HERVE
99.9710090259591SARENS Bastien22BELVTT TEAM 3 CANA3:30:232:49 21.398eshBLATON
100.7049100 902 590 86HARLEZ Maxime21BELTEAM VTT 3 CANA3:30:252:49 21.399eshTERTRE
101.711710009450107JAMIN Louis22BELTEAM SUPERBIKER3:30:272:49 21.3810eshWALCOURT
102.721910065239352VERMEIR Jochem34BELTEAM ADAPP3:30:332:49 21.3739ma1OPWIJK
103.7590URKENS Davy39BEL3:30:502:49 21.3440ma1GIERLE
104.99BEL19890511WALLAYS Jelle30BELLOTTO SOUDAL3:30:592:49 21.3341ma1
105.721110065261681VERMEULEN Joris26BELGLAUDIS URMALE 3:31:292:50 21.2828eliROTSELAAR
106.707310074992805LEHNEN Thomas23BELLIGNA SYSTEMS M3:31:352:50 21.2729eliRODT
107.722110027553842CARTON Ludovic34FRATOUQUET ACC3:31:392:50 21.2642ma1ZEGERSCAPPEL
108.7554GOEMAN Kenny43BEL3:31:592:50 21.2322ma2OPOETEREN
109.7320MAHAUX Olivier43BEL3:32:042:50 21.2223ma2TROIS-PONTS
110.716296069611VERHOEVEN Martijn32NLDTHE WHOOPERS3:32:082:50 21.2143ma1VINKEL
111.7330VAN GESTEL Niek35BEL3:32:112:50 21.2144ma1DESSEL
112.718910077779634OLIVEIRA Pedro32PRTTEAM BIKE4LIFE3:32:222:50 21.1945ma1SINT PIETERS LEEUW
113.767410007143830GLORIEUX Steven39BELIMOVE3:32:402:51 21.1646ma1NINOVE
114.704310013224417TOLLENAERE Wim50BELTEAM DE FIETSER3:33:042:51 21.123ma3OPWIJK
115.7537KIRCHER Guillaume37FRAMYCINÉ3:33:102:51 21.1147ma1ERNESTVILLER
116.762110003668705FRIEDRICH Max42DEUVC DARMSTADT/MA3:33:112:51 21.1124ma2
117.7166100137 292 21BEULENS David36BELINDIVIDUEEL3:33:142:51 21.1148ma1MELDERT
118.723210074010172LAZARON Vincent27BELTEAM SAN MAZUIN3:33:222:51 21.0930eliSPONTIN
119.7026100 563 525 36DE COCK Tommy42BELKLEIN-BRABANT M3:33:352:51 21.0725ma2VRASENE
120.716910053536203PEETERS Johan45BELKLEIN - BRABANT3:33:382:51 21.0726ma2BORNEM
121.762010022800236VAN DIJK Bastiaan19NLDWWV3:33:512:52 21.0411esh
122.7530POLLET Jan39BELTRANSACTIEF3:33:522:52 21.0449ma1LANDSKOUTER
123.7307VAN OOSTEN Casper41NLD3:33:542:52 21.0427ma2WAALRE
124.10010006919215KEUKELEIRE Jens31BELLOTTO SOUDAL3:34:132:52 21.0150ma1SINT-ANDRIES
125.764810015070851WILLEMS Gunter40BELCYCLES GILKINET3:34:172:52 21.0028ma2JAUCHE
126.717310082026820FRANSSEN Bart33NLDLICHT VERZET3:34:192:52 21.0051ma1NIJMEGEN
127.720810005624970BAERT Luc50BELKLEIN BRABANT M3:34:342:52 20.974ma3ZELE
128.713610006661456IMMING Bram29NLDTEAM IMMING/AGU3:34:422:52 20.9631eliEGMOND-BINNEN
129.713796121498VERDONK Henk30NLDIMMING-AGU3:34:582:52 20.9352ma1EGMOND AAN DEN HOEF
130.7501VERMANG Joris44BELTOPBIKE3:35:192:53 20.9029ma2PELLENBERG
131.705110014369118GUILLAUME Geoffrey23BELENTENTE CYCLIST3:35:202:53 20.9032eliCINEY
132.724810004092774RENSON Pierre39BELCYCLISTE TEAM G3:35:292:53 20.8853ma1ESNEUX
133.7408VERBEECK Kinnie30BEL3:35:432:53 20.8654ma1BETEKOM
134.714310023291296TETTEROO Joost40NLDMBC DE NOORDBIK3:35:592:53 20.8430ma2NOORDWIJKERHOUT
135.719210022876018VAN KOOIJ Maarten39NLDMTB-CLUB DISCOV3:36:172:54 20.8155ma1MAASTRICHT
136.7419JAKOB Sutmuller47NLD3:36:232:54 20.8031ma2NIJMEGEN
137.7053100 877 729 57MEURENS Thomas23BELTEAM2RACE3:36:322:54 20.7833eliSPA
138.708710078434685VAN MOSSELVELDE Peter40BELHILAIRE XCM TEA3:36:492:54 20.7632ma2OOSTROZEBEKE
139.7202100 157 745 07DE GRAEVE Brian20BELINTRASYS NODRUG3:36:572:54 20.7412eshWAARSCHOOT
140.714010056103467SWINNEN Sven38BELINDIVIDUEEL3:36:572:54 20.7456ma1HELCHTEREN
141.712010015512809VALCKE Owen20BELINTRASYS NODRUG3:37:132:54 20.7213eshLOKEREN
142.7128100 935 310 20RAEMAEKERS Thomas35BEL3:37:192:54 20.7157ma1OUD-HEVERLEE
143.7400PEETERS Bart38BELHST YOKOHAMA3:37:202:54 20.7158ma1ANTWERPEN
144.765810007450994DECOUX Jonathan34BELTEAM CAN MAZUIN3:37:312:55 20.6959ma1BIESME
145.761110092001958BLAISE Alain53BELDECORAMA3:37:422:55 20.675ma3MALMEDY
146.7353DE RYCK Niels33BEL3:38:042:55 20.6460ma1BOOISCHOT
147.704210007544560LUCA Wesley39BELTRUSTMTBTEAM3:38:052:55 20.6361ma1DIKSMUIDE
148.7363VAN PAESSCHEN Wouter32BELTRANSACTIEF3:38:262:55 20.6062ma1HUMBEEK
149.700910048431777VANDAEL Rony51BELBIKE TEAM B613:38:352:55 20.596ma3OVERPELT
150.724610076750020VERVLOESSEM Jurgen32BELRS BIKES RACING3:38:572:56 20.5563ma1RIJMENAM
151.7675SMEULDERS Joey30NLDBAKKER RACING /3:39:002:56 20.5564ma1MIERLO
152.7239008_54033497TATON Florent30FRAUVCCM3:39:162:56 20.5265ma1LÉPRON LES VALLÉES
153.718210054532471DE CLERCQ Christophe39BEL3:39:252:56 20.5166ma1OUDENAARDE
154.7639COOLEN Twan48NLD3:39:322:56 20.5033ma2
155.724410010956536KIELICH Timo20BEL3:39:402:56 20.4914eshALKEN
156.717810036522403WEBER Laurent45BELTEAM BIKE4LIFE3:39:422:56 20.4834ma2REBECQ
157.7504GOESSENS Gregory38BELTEAM BIKE4LIFE3:39:462:56 20.4867ma1LA HESTRE
158.725710058533723WIJCKMANS Pieter38BELAPRÈS BIKERS3:39:572:56 20.4668ma1WIEKEVORST
159.715896074821OVEREEM Simon29NLDKNWU3:39:572:56 20.4634eliVEENENDAAL
160.7508LAUBARY Benoit32FRASAVERDUN 4655053:40:042:57 20.4569ma1SAINT-MIHIEL
161.766010006612754MARTIN Camille42BELENTENTE CYCLIST3:40:112:57 20.4435ma2BRUXELLES 12
162.708210078153183LAURENT Axel25BELECW3:40:172:57 20.4335eliARLON
163.703610059234042VOLON Jean-Marc43BELENTENTE CYCLIST3:40:182:57 20.4336ma2HERSTAL
164.716710048545955SCHMITZ Thomas55DEUCYCLETEC CENTUR3:40:382:57 20.407ma3HILDEN
165.7005100 099 877 48FACHTEN Kristien35BELSWOOTH MTB TEAM3:41:002:57 20.361damROTSELAAR
166.720510023309787VAN DER MEER Maas19NLDWESTLAND WIL VO3:41:152:57 20.3415eshBERGSCHENHOEK
167.713010077934127RAMPEL Valentin19BELCRABBE TOITURES3:41:182:58 20.3416eshLAHAGE (TINTIGNY)
168.7627VANDEERMTTEN Stijn41BEL3:41:232:58 20.3337ma2
169.7301VAN DEN BERG Ronald28NLDPGA NEDERLAND3:41:292:58 20.3236eliRHEDEN
170.709110084272267SLEUMER Richard32NLDCS0303:41:352:58 20.3170ma1ZEIST
171.717510062629850NIELS Bijkerk29NLDUWTC DE VOLHARD3:41:402:58 20.3037eliAMSTELVEEN
172.715510016476846THIJS Edwin34BELINDIVUEEL3:41:422:58 20.3071ma1ARENDONK
173.717110084441110VERLEYEN Dirk50BELCYCLING TEAM TH3:41:442:58 20.308ma3BREDENE
174.762510050889214METZGER Dirk52BELWWW.WECYCLE.DE3:42:292:58 20.239ma3
175.765310012083435DONDEYNE Niels32BELPACHTHOFVRIENDE3:42:312:59 20.2272ma1OVERIJSE
176.7418VERSTRAETE Robbe27BEL3:42:332:59 20.2238eliGELUWE
177.764410788/96026343ROSENBOOM Fabian34NLDX-TRACK3:42:332:59 20.2273ma1HEERLEN
178.7593BELIËN Joris38BELVELOJUNKS3:42:482:59 20.2074ma1MOL
179.7506WILLAERT Justin32BEL3:42:582:59 20.1875ma1OOSTENDE
180.7269VANDENRIJT Pascal54BELMTB TEAM GLAUDI3:43:032:59 20.1810ma3HERK-DE-STAD
181.7080100 547 214 21LOWIES Jérôme37BELECW3:43:072:59 20.1776ma1AMAY
182.709010011881672KONING Luc54NLDTEAM BRABANT 203:43:222:59 20.1511ma3TN VUGHT
183.7170FRA19960905REGNARD Antoine23FRAC2S3:43:242:59 20.1439eliCHAMONIX
184.702110050898207CARDINAELS Philippe45BELBIKE TEAM B613:43:302:59 20.1438ma2HAMONT
185.7265VAN EECKHOUT Frederik28BEL3:43:593:00 20.0940eliANZEGEM
186.703510084540938FPLASSCHAERT Helena35BEL3:44:053:00 20.082damWAALRE
187.711210010003916MONFORT Jean-Marc52BELTEAM 2 RACE3:44:073:00 20.0812ma3MEMBACH
188.716110015471581BOLLEN Stan20BELBIKE TEAM B613:44:073:00 20.0817eshPEER
189.7487EXELMANS Matthias31BEL3:44:093:00 20.0877ma1HERSELT
190.7114100 730 187 52LÉONARD Cédric33BELCOMITÉ RÉGIONAL3:44:353:00 20.0478ma1MARTELANGE
191.712910022731730BOSCHKER Marcel51NLDWTC WOERDEN3:44:403:00 20.0313ma3WOERDEN
192.710910048706815LAVIGNE Jean-Pierre30FRAGREEN TEAM DIST3:44:533:00 20.0179ma1DIPPACH
193.7603WILLEN Stefan42BELGRANFONDOTEAM3:45:003:00 20.0039ma2DILSEN-STOKKEM
194.7686DUYCK Pieter37BEL3:45:113:01 19.9880ma1WINGENE
195.720710005365393WUBBEN Niels31NLD3:45:123:01 19.9881ma1DORST
196.764910076723748ROSSIUS Martin22BELGOLDEN TICHES3:45:263:01 19.9618eshBLÉGNY
197.709310023046372DE BRUIJN Justin34NLDTEAM BRABANT 203:45:393:01 19.9482ma1ZALTBOMMEL
198.7522VAN GORP Bart37BEL3:45:513:01 19.9383ma1NIJLEN
199.7555SCAILLET Olivier41BELVC MEMBACH3:45:593:01 19.9140ma2MEMBACH
200.725510089764184CALONNE Erwin45BELTEAM VTT 3 CANA3:46:053:01 19.9041ma2BERNISSART
201.706110014890591VAN HERPE Florent22BELTEAM VTT 3 CANA3:46:253:02 19.8719eshHAUTRAGE
202.724010003442874FSAENEN Kim43BELGNN RIDE CYCLIN3:46:303:02 19.873damDIEST
203.706510053283494MANGUETTE Jérôme35BELGOLDEN TICHES3:46:303:02 19.8784ma1VERVIERS
204.7562BUIDIN Andy35BELTEAM BIKE4LIFE/3:46:363:02 19.8685ma1OEUDEGHIEN
205.701310023369304JASPER DE GROOT Jasper28NLDCYCLOTEAM.NL3:46:563:02 19.8341eliBERGAMBACHT
206.712610072203952DE BOER Maikel32NLD3:47:043:02 19.8286ma1HEERHUGOWAARD
207.7007100 157 700 59FORTHOMME Adrien22BELTEAM 2 RACE3:47:153:02 19.8020eshSTOUMONT
208.713410016463914ROTTIERS Cédric27BELINDIVIDUEEL3:47:203:02 19.8042eliZONNEGEM
209.7551EYSKENS Björn37BEL3:47:273:02 19.7987ma1RIJKEVORSEL
210.701510009571759CARLIER Vincent46BELPITAU TEAM3:47:313:03 19.7842ma2LAMBUSART
211.703710076094258THOMAS Daniel34BELBIKE4LIFE3:47:323:03 19.7888ma1STRÉPY-BRACQUEGNIES
212.7495VANDERBIST Quentin41BELLOS FLAMENCOS3:47:443:03 19.7643ma2OOSTERZELE
213.719010022938662GEMERT VAN Tijs46NLDUNLTD3:47:503:03 19.7544ma2ZEVENHUIZEN
214.7438THOMAS Maebe33BELZEWIETIES3:47:503:03 19.7589ma1BAAIGEM
215.7645DENNE Tete En L'Air41BEL3:48:063:03 19.7345ma2CORNESSE
216.7441LENAERS Karel35BEL3:48:083:03 19.7390ma1HASSELT
217.709710092571831PENNERS Alwin51NLDCONAP.BIZ3:48:153:03 19.7214ma3SELFKANT
218.7547MOONS Rudi50BEL3:48:263:03 19.7015ma3BEERZEL
219.7696CALLENS Bart39BEL3:48:403:03 19.6891ma1WINGENE
220.7290BRUYER Nicolas25FRATEAM OMV3:48:403:03 19.6843eliATTIN
221.7409RASSAERTS Olivier29BEL3:48:523:04 19.6644eliWESPELAAR
222.723010024836024MESTRE Romain37FRASEDAN SC3:49:043:04 19.6592ma1DAIGNY
223.7617LECOUR Joeri33BEL3:49:203:04 19.6293ma1DEERLIJK
224.7362VANGHEEL Dimitri31BEL3:49:433:04 19.5994ma1SINT KATELIJNE WAVER
225.7556DEWAEL Marc53BEL3:49:573:04 19.5716ma3MEEUWEN-GRUITRODE
226.7687PATRIS Louis-Vadim30BEL3:49:593:04 19.5795ma1NAMUR
227.7273DANNEELS Bram28BEL3:50:373:05 19.5145eliSIJSELE
228.7041100 163 486 25BAUWENS Aaron19BELVANOMOBIL MTB C3:50:413:05 19.5121eshEKSAARDE
229.718810090549379BASTYNS Wim25BELWEBECO - Q JOBS3:50:433:05 19.5146eliMEER
230.7688VANELDEREN Dominic44BEL3:50:513:05 19.4946ma2GUIGOVEN
231.721510015070548STORMS Gert44BEL3:50:583:05 19.4847ma2HEIST-OP-DEN-BERG
232.723610093858291BRAUNE Jean-Yves48BELCOMITÉ RÉGIONAL3:51:103:05 19.4748ma2PLAINEVAUX
233.7450POPULAIRE Rémi27BEL3:51:153:05 19.4647eliCHIÈVRES
234.94VAN GORP Koen36BEL3:51:453:06 19.4296ma1
235.7452VANOVERBEKE Joost46BEL3:51:463:06 19.4249ma2LEUVEN
236.7514KOUIJZER Marco31NLDBIKECENTER ZEEU3:51:473:06 19.4297ma1HULST
237.7623KEYEUX Nicolas41BEL3:51:483:06 19.4150ma2
238.721210065262085SMEYERS Brent25BELINDIVIDUEEL3:51:493:06 19.4148eliARENDONK
239.7327VAN DRIESSCHE Nicolas40BEL3:51:553:06 19.4051ma2
240.7533DELONGUEVILLE Raphaël44BELPITAU TEAM3:51:583:06 19.4052ma2WAGNELÉE
241.95NUYTS Tom37BEL3:52:103:06 19.3898ma1LILLE
242.76721000801177DE CLEYN Dave31BELCYCLING TEAM ZE3:52:223:06 19.3799ma1
243.7333STELWAGEN Tiemen32NLD3:52:433:07 19.34100ma1EMMEN
244.7454MORI Kevin41NLDLICHT VERZET3:52:523:07 19.3253ma2NIJMEGEN
245.712210036505124STEURS Kevin29BELYOUNG CYCLING T3:53:033:07 19.3149eliWESTMEERBEEK
246.7402MESNIER Thibaud28FRAGREENTEAM DISTR3:53:043:07 19.3150eliFÈVES
247.7462WILLEMS Sam30BEL3:53:113:07 19.30101ma1OOSTROZEBEKE
248.7650PAVÉE Benoit35FRARAIDSAVENTURE.F3:53:153:07 19.29102ma1CHAMROUSSE
249.7560LUYTEN Guy52BELALERTBIKERS3:53:393:07 19.2617ma3LUMMEN
250.7516VAN ELDERE Pieter27BEL3:53:423:07 19.2651eliHASSELT
251.722010065233389DECKX Jo38BELOFF ROAD CLUB B3:53:483:08 19.25103ma1DESSEL
252.7463AERTS Thomas34BELTANDJEN BY3:53:493:08 19.25104ma1OUDSBERGEN
253.725110022752645KOCH Patrick47NLDBACKDRAFT MTB T3:53:523:08 19.2454ma2THOLEN
254.762810009580550FTROMMER Cemile29DEUFOCUS RAPIDO RA3:54:143:08 19.214damOBERHAUSEN
255.7345JELLE Vansnick23BELBRUKOMBIKES3:54:143:08 19.2152eliBEVER
256.7296DIAZ Nicolas25FRA3:54:433:08 19.1753eliST FOLQUIN
257.7477POTTIEZ Francois37BEL3:54:473:08 19.17105ma1BAUDOUR
258.7342GRODENT Jonathan38BELTEAM 333:54:483:08 19.17106ma1WELKENRAEDT
259.7582GIJSEN Philip38BELTEAM BEINAND3:54:533:08 19.16107ma1BILZEN
260.721310004636782DUC Sébastien40FRAVELO CLUB ERPER3:55:053:09 19.1455ma2ROMERY
261.7544PEETERS Jorre21BELBIKE TEAM B613:55:213:09 19.1222eshPEER
262.725010003489758BOON Niels40NLDMTB-CLUB DISCOV3:55:223:09 19.1256ma2MAASTRICHT
263.84VEYT Jelle33BEL3:55:273:09 19.11108ma1DENDERMONDE
264.7361DUCROCQ Dimitri22FRA3:55:293:09 19.1123eshRANG DU FLIERS
265.7561VAN DE VOORDE Christophe39BELSTRONGMULTI3:56:073:09 19.06109ma1MERELBEKE
266.7548VANGENEUGDEN Rik31BELLAKE BIKERS3:56:083:09 19.06110ma1LUMMEN
267.7638BEL19721228WILLEMS Jan47BELDE MODDERFOKKER3:56:153:09 19.0557ma2SCHELLEBELLE
268.9010009807488NAESEN Lawrence27BELLOTTO SOUDAL3:56:193:10 19.0454eli
269.7291MARTEL Sebastien25FRATEAM OMV3:56:273:10 19.0355eliCUCQ
270.7519BRAES Stef30BEL3:56:293:10 19.03111ma1LANGDORP
271.703810011582992LUCAS Christophe39BELMJ CRAZY BIKERS3:56:553:10 18.99112ma1GOUY LEZ PIÉTON
272.7569CORNELIS Danny50BEL3:57:103:10 18.9818ma3KERMT
273.7260HULEUX Ludovic30FRATEAM SPECIALIZE3:57:173:10 18.97113ma1VADENCOURT
274.705910078401242COULON Olivier33BELCHAMPION'S3:57:283:10 18.95114ma1VILLER-LA-TOUR
275.7338VANDEN DRIESSCHE Mark40BEL3:57:363:11 18.9458ma2EEKLO
276.723510004822294DONY Jean-Philippe37BELCOMITÉ RÉGIONAL3:57:363:11 18.94115ma1VERLAINE
277.7492VAN MELE Koen43BELWMTB3:58:043:11 18.9059ma2HAMME (O.-VL.)
278.7367HAKVOORT Ralph35NLDATB CLUB DE PED3:58:043:11 18.90116ma1ETTEN
279.7520KUROWSKI Nicolas36BELBBIKES3:58:123:11 18.89117ma1AYWAILLE
280.725610 090 992 852HAMMER Veit40DEU3:58:153:11 18.8960ma2HELMOND
281.7271DOMBROWSKI Uwe52DEU3:58:183:11 18.8819ma3MÖNCHENGLADBACH
282.7512CELEN Wim40BELMTB CLUB CYBER13:58:183:11 18.8861ma2LAAKDAL
283.761510010645126FMICHIELSENS Sara35BELINDIVIDUEEL3:58:243:11 18.885damLEUVEN
284.71441OO76299372PELLEGRINELLI Nicolas36BELASI CYCLING3:58:333:11 18.86118ma1ROSELIES
285.86CLAES Jef41BEL3:58:493:12 18.8462ma2DESSEL
286.7373007KOEHL Mario50LUXMUSELBIKES3:58:553:12 18.8420ma3GREVENMACHER
287.7494MIEZE Julien26FRALES GAZIERS3:59:083:12 18.8256eliEPERLECQUES
288.7391SEVENOO Francis48BELVC DE STATIE3:59:123:12 18.8163ma2EEKLO
289.7439MIESZCZAK Christophe47FRALES MARCASSINS3:59:183:12 18.8164ma2COULOGNE
290.7086100 789 597 01DE VRIES Stef43BELDE KURINGER SPO3:59:233:12 18.8065ma2BALEN
291.7079100 037 324 60HANNES Bob50BELDE KURINGER SPO3:59:253:12 18.8021ma3BALEN
292.7147100 927 762 38VANDEPUTTE Mario39BELDE DEURETERTERS3:59:383:12 18.78119ma1OOSTROZEBEKE
293.7148100 926 866 15BOCKLANDT Cedric33BELDE DEURETERTERS3:59:393:12 18.78120ma1OLSENE
294.7526DE GENDT Bert40BEL4:00:073:13 18.7466ma2TEMSE
295.7538VANEYCKEN Joeri46BEL4:00:093:13 18.7467ma2PERK
296.712710061867691DELHAYE Arnaud29BELGOLDEN TICHES4:00:243:13 18.7257eliBEYNE HEUSAY
297.717710003338602RIEMSLAGH Gianni40BELKLEIN-BRABANT M4:00:363:13 18.7068ma2BORNEM
298.725310009357652FVAN PEER Sara33BELRAF'S BIKE TEAM4:00:393:13 18.706damGEEL
299.704710011811752GOVAERT Arne31BELTEAM ATOM 6 BIK4:00:423:13 18.70121ma1ROLLEGEM
300.91GENTEN Frank46BELGLOUMS VTT4:00:453:13 18.6969ma2WAIMES/WEISMES
301.7587GINNEBERGE Thomas30BEL4:01:073:13 18.66122ma1DIEST
302.7413MARÉCHAL Nathan25BEL4:01:223:14 18.6458eliTAVIER
303.714510023279879HOEDEMAEKERS Daniël50NLDMET DAVID MTBRA4:01:243:14 18.6422ma3RIETHOVEN
304.7397DELANNOY Jean-Luc59BEL4:01:313:14 18.6323ma3HUY
305.7453BORGMAN Lars34NLD4:01:313:14 18.63123ma1TETERINGEN
306.7032729977KÖHNSEN Florian23DEUTRENGA DE RADSP4:01:463:14 18.6159eliSEEVETAL
307.7325CNUDDE Bert32BEL4:01:543:14 18.60124ma1ZULTE
308.7641DE MUNNIK Lennart35BEL4:01:543:14 18.60125ma1
309.709910016198778DUMOULIN Steven42BELBRM4:01:573:14 18.6070ma2ROESELARE
310.7564RYSMAN Kristof43BEL4:02:013:14 18.5971ma2VICHTE
311.7586BERTIAUX John31BELBIKE4LIFE TEAM4:02:053:14 18.59126ma1SENEFFE
312.713310016476745THIJS Dennis31BELINDIVIDUEEL4:02:203:14 18.57127ma1EKEREN
313.700310060003574VERJANS Nicolas45BELECW BIKE74:02:233:14 18.5772ma2MOURCOURT
314.7491PEETERS Jeff37BEL4:03:153:15 18.50128ma1BALEN
315.7427GERARD Ludovic29BELLES BRAQUETS DE4:03:163:15 18.5060eliPIN
316.763010002601301FRAVENSTIJN Reza52NLDMTB LICHT VERZE4:03:213:15 18.497damWIJCHEN
317.7489VAN HUL Stefaan49BELWAASLAND MTB TE4:03:233:15 18.4973ma2TEMSE
318.724710015775820CARDYN Lizander20BELWAASLAND MTB SC4:03:273:15 18.4924eshGENT
319.717410051404526DEBAYE Sebastien45BELECW VELO4:03:393:15 18.4774ma2REBAIX
320.7096100 771 966 24GOFFAUX Bruno46BELTEAM CAMMAERTS4:03:413:15 18.4775ma2ANDENNE
321.7393BONROY Laurent48BEL4:03:523:16 18.4576ma2WANZE
322.7518VRENKEN Xavier36BEL4:04:163:16 18.42129ma1AYWAILLE
323.7370WALRAVEN Rob39NLD4:04:263:16 18.41130ma1BOEKEL
324.710510086082632JULIEN Bau33FRAGREEN TEAM DIST4:04:263:16 18.41131ma1YUTZ
325.7376BARTHELEMY Pierre Loic32FRAROCKRIDER RACIN4:04:303:16 18.40132ma1ORIOCOURT
326.713510065210959VINCENT Seynave41BELVANOMOBIL CYCLI4:05:003:16 18.3777ma2WERVIK
327.7689VANLOFFELD Ronny44BEL4:05:133:17 18.3578ma2BILZEN
328.7597VANKERCKHOVEN Hans42BELTEAM WILDLIFE4:05:173:17 18.3579ma2MECHELEN
329.7176100 165 143 33WASTERLAIN Antoine30BELMJ CYCLES TEAM4:05:203:17 18.34133ma1ANDERLUES
330.7642WYBO Dieter38BEL4:05:293:17 18.33134ma1OOSTROZEBEKE
331.7692BEL19640821VERSWIJVEL Eric55BELBIKE INN HERENT4:05:403:17 18.3224ma3VORSELAAR
332.7466OUDERMANS Thierri45BELTRIPPLEL BIKERS4:05:443:17 18.3180ma2ZOERSEL
333.710810036457432POTÉ Gilles26BEL4:06:033:17 18.2961eliDEINZE
334.7488GEENS Maarten41BEL4:06:073:17 18.2881ma2HEIST OP DEN BERG
335.7475VERMUE Rob36NLD4:06:193:18 18.27135ma1KUITAART
336.89STANDAERT Andy36BEL4:06:313:18 18.25136ma1STEENHUIZE
337.7344VIVIEN Develle39BEL4:06:593:18 18.22137ma1MAFFLE
338.7657SERVAIS Gilles24BELWTC VERBRUGGELI4:07:043:18 18.2162eli
339.87FONTEIJN Maarten33NLD4:07:053:18 18.21138ma1
340.7383RAYMAKERS Jense32BEL4:07:193:18 18.20139ma1LUMMEN
341.7652DARNANVILLE Pascal56FRABARENTINS4:07:223:18 18.1925ma3
342.7592VANDENDAELE Brecht32BELEKOPAK WARRIORS4:07:283:18 18.18140ma1ELLEZELLES
343.7478VANDENDAELE Bram32BELEKOPAK WARRIORS4:07:323:19 18.18141ma1RONSE
344.72231860217353844BAUWENS Jeroen33BELGRANFONDOTEAM.B4:07:393:19 18.17142ma1HOBOKEN
345.709510076756888HARM Oosterbaan21NLDSPECIALIZED WOR4:07:443:19 18.1725eshWEHL
346.7449MARKEY Bram30BELINSEGUITORI4:07:463:19 18.16143ma1HERENT
347.7371MOHANTY Simon37DEUKK PUDELHODEN4:08:033:19 18.14144ma1NEUKIRCHEN VLUYN
348.7046BOUQUET Kenneth30BELREYNAERTS-VDM C4:08:043:19 18.14145ma1SINT-LIEVENS-HOUTEM
349.7460CHRISTOPH Bernd45DEUGELÄNDEFAHRRAD 4:08:143:19 18.1382ma2AACHEN
350.718510065212070WALLAERT Giovanni40BEL4:08:313:19 18.1183ma2MALDEGEM
351.7328VAN GEEL Tom41BEL4:08:433:19 18.0984ma2GEEL
352.7074CLEYS Dimitri44BELKALLOFFWRD4:08:453:19 18.0985ma2
353.7337VAN DEN BRAND Mathieu39NLDCYCLEXPERIENCE4:08:563:20 18.08146ma1ZEELAND
354.7598BELGHERBI Anthony41FRA4:09:113:20 18.0686ma2SARRALBE
355.2FCAUWENBERGH Katja44BEL4:09:173:20 18.058damOPVELP
356.708410082375717VAN POLLAERT Sven38BELVANOMOBIL MTB C4:09:243:20 18.04147ma1ERPE-MERE
357.761910009549427DERVEAUX Danny49BELKRIERECROSSERS4:09:263:20 18.0487ma2OTEGEM
358.766610054050303JANNSENS Jef35BELBOSKNOTSERS4:09:333:20 18.03148ma1
359.7473KAES Geert55BEL4:09:333:20 18.0326ma3SPRIMONT
360.7612MBO Babota51BEL4:09:363:20 18.0327ma3
361.7591BOECKX Jef41BEL4:09:373:20 18.0388ma2DESSEL
362.702210051010260BOLLEN Jan48BELBIKE TEAM B614:09:463:20 18.0289ma2PEER
363.7509HEMBERT Rémi33FRALES GAZIERS4:09:593:20 18.00149ma1BUYSSCHEURE
364.7341MOTTET Philippe49FRA4:10:073:21 17.9990ma2WAHA
365.96DECKERS Ad41BEL4:10:083:21 17.9991ma2NEEROETEREN
366.7270COPPENS Steicy39BEL4:10:223:21 17.97150ma1BASTOGNE
367.7493HENDRIX Roy28BEL4:10:253:21 17.9763eliHEUSDEN-ZOLDER
368.7535MALCORPS Philip48BEL4:10:273:21 17.9792ma2HERENTALS
369.7464NIEGO Stephane51FRA4:10:373:21 17.9628ma3BAINVILLE SUR MADON
370.7165100 704 948 33FFLORIZOONE Veronique46BELGRANFONDTEAM.BE4:11:013:21 17.939damBRUGGE
371.7293SOARES DA COSTA David29PRT4:11:253:22 17.9064eliTHIEUSIES
372.704510058375893LAMBERTZ Daniel37DEUCOFFEE & CHAINR4:11:373:22 17.89151ma1ERKELENZ
373.7682HACKIN Stéphane45BEL4:11:573:22 17.8693ma2ALLEUR
374.7571BRODEOUX Don40BEL4:12:123:22 17.8494ma2MELDERT
375.702010049941644VAN ELSEN Guy48BELBIKE TEAM B614:12:183:22 17.8495ma2HAMONT - ACHEL
376.72031700407451618VAN SANTVLIET Tom49BELCYCLING VLAANDE4:12:183:22 17.8496ma2WUUSTWEZEL
377.723710054524690HAEPERS Filip43BELPANACHE MTB TEA4:12:213:22 17.8397ma2WESTMEERBEEK
378.706610090189267BRASSART Damien30BELCHAMPION'S RACI4:12:213:22 17.83152ma1MACON
379.7216100 909 404 13SMET Guy50BELGRANDFONDOTAEM.4:12:333:23 17.8229ma3STOKROOIE
380.701810074981990DINI Sylvain43BELMJ TEAM4:12:393:23 17.8198ma2AUVELAIS
381.7546VANDENDAELE Dwight31BELEKOPAK WARRIORS4:13:003:23 17.79153ma1RONSE/RENAIX
382.7531REQUETTE Emmanuel45BEL4:13:233:23 17.7699ma2BRUXELLES
383.7116100 923 969 28LEJEUNE Philippe45BELLDJ4:13:343:23 17.75100ma2VISE
384.710610071557082DE TOMI Florent33FRAGREEN TEAM DIST4:13:353:23 17.75154ma1KOENIGSMACKER
385.706410091268088WOOS Olivier38BEL4:14:133:24 17.70155ma1LIEGE
386.7332DROST Jenco31NLD4:14:263:24 17.69156ma1EINDHOVEN
387.761310011578952VANDENBUSSCHE Tom32BELSHIFTING GEARS 4:14:373:24 17.67157ma1BRUGGE
388.7678VAN PEER Dieter30BEL4:14:423:24 17.67158ma1
389.7401GOFFINET Kevin36BELPLAYBIKERS4:14:453:24 17.66159ma1MALMEDY
390.7665MARTIN Baptiste30BELBH TEAM GILKINE4:14:503:24 17.66160ma1SPRIMONT
391.7566PERDAENS Johan47BEL4:14:543:24 17.65101ma2GALMAARDEN
392.7517VANDERTHOMMEN Daniel58BEL4:15:313:25 17.6130ma3WELKENRAEDT
393.7511ANDRE Alexandre33FRA4:16:053:25 17.57161ma1GOMMEGNIES
394.7694CHASTREUX Patrick37BEL4:16:303:26 17.54162ma1LANAYE
395.7585VAN GESTEL Robin39BEL4:16:453:26 17.53163ma1RETIE
396.7422THERY Jean-Yves50FRAMARCASSINS4:17:003:26 17.5131ma3NIELLES LES CALAIS
397.7572BLANCKE Niels28BELDE BAROUDEURS4:17:103:26 17.5065eliDESTELBERGEN
398.705410050655303MARCHAND Sebastien40FRAUVCCM4:17:213:26 17.49102ma2CHARLEVILLE MEZIERES
399.7354ODENTHAL Randy James45NLDWTCA4:17:273:26 17.48103ma2AMSTERDAM
400.7576DEPREZ Marco44BELBIKE TEAM MEERH4:17:323:27 17.47104ma2DIEST
401.7412BOGAERTS Sven35BELHST4:17:343:27 17.47164ma1BALEN-WEZEL
402.7651DE CUYPER Pieter30BEL4:17:443:27 17.46165ma1INGELMUNSTER
403.7810054121940BERNARD Alexandre44FRA4:17:513:27 17.45105ma2CHASTRE 1450
404.706010090579085ANNENDIJCK Jesse30BELRIDE FOR FÉLINE4:18:523:28 17.38166ma1GEEL
405.7442TOUSSEIN Jan39BEL4:19:003:28 17.38167ma1BRUGGE
406.7507LECOMTE Stephane33BELPURE CYCLING TE4:19:103:28 17.36168ma1CHATELET
407.7459DRIESEN Robert36BELCYCLING CLUB CA4:19:183:28 17.35169ma1KAULILLE
408.7468VANDEN ECKER Breght33BELTANDJEN BY4:19:383:28 17.33170ma1BREE
409.7465GOFFLO Maarten34BELTANDJEN BY MTHR4:19:393:28 17.33171ma1GRUITRODE
410.7563MARTIN Henri28BELGEMBLOUX AGRO-B4:19:463:28 17.3266eliGEMBLOUX
411.7527LEMPEREUR Grégory41BEL4:19:493:28 17.32106ma2WÉPION
412.7626BEL19651211DERVEAUX Claude54BEL4:19:543:28 17.3232ma3ZWEVEGEM
413.7305NEUVILLE Pierre28BEL4:19:583:28 17.3167eliLOUVEIGNÉ
414.7358RAUW Patrick44BELRCM4:20:113:29 17.30107ma2BÜTGENBACH
415.7565JAECK Jean-Paul45FRAMYCINÉ4:20:283:29 17.28108ma2HILSPRICH
416.7385ABRAMS Bart57BELGLAUDIS - URMAL4:20:463:29 17.2633ma3LUMMEN
417.7559MASTROGIOVANNI Julien29BELLES BRACASS'4:20:503:29 17.2568eliCHARLEROI
418.79SYRYN Jan48BEL4:20:523:29 17.25109ma2RUMST
419.7553GOBBATO Agostino42BEL4:20:593:29 17.24110ma2BERNRIED
420.7573VELLEMANS Jens25BELMTB GENT4:21:023:29 17.2469eliOOSTAKKER
421.7594VAN DER MASSEN Carl57BEL4:21:103:29 17.2334ma3OPHAIN-BSI
422.7334SEGERS Milan27BEL4:21:163:30 17.2270eliDILBEEK
423.7505CUYPERS Geert46BEL4:21:263:30 17.21111ma2HOESELT
424.7356MEYER Thomas25BEL4:21:273:30 17.2171eliSTAVELOT
425.7500TYTGAT Timo28BEL4:21:553:30 17.1872eliROESELARE
426.7502VAN HAUWAERT Dries25BEL4:21:563:30 17.1873eliROESELARE
427.7558VERVELGHE Jurgen46BEL4:21:563:30 17.18112ma2OOSTROZEBEKE
428.7281MAILLY Alexis27FRA4:21:593:30 17.1874eli62150
429.7282MATTE Bastien29FRA4:21:593:30 17.1875eliTANGRY
430.7335SEGERS Enzo29BEL4:22:233:30 17.1576eliLENNIK
431.82DILLEN Dieter43BEL4:22:303:30 17.14113ma2OLEN
432.7671NIJS Luc55BELMTB TEAM LANGDO4:22:343:31 17.1435ma3
433.7317VANDERVEKEN Steve50BEL4:22:403:31 17.1336ma3HERENTALS
434.7432JACOB Benoît50BELANDUROXC4:23:053:31 17.1137ma3MALONNE
435.7366DE BOCK Svern40BELPAS4:23:143:31 17.10114ma2KAPELLEN
436.7486ERNST Karsten51DEUTEAM WÜSTER RAD4:23:323:31 17.0838ma3HILDEN
437.704010088809140VANDAEL Werner50BELBIKE TEAM B614:24:053:32 17.0439ma3KLEINE-BROGEL
438.7476VAN DEN EECKHOUT Hans28NLD4:24:163:32 17.0377eliZOETERMEER
439.7348CALLEWAERT Hans43BELDE FORUMBIKERS4:24:173:32 17.03115ma2WERVIK
440.7541RASKIN Alain53BELBBIKES4:25:173:33 16.9640ma3SOUMAGNE
441.718010065166095COOLS Jimmy56BELLOBSTER MTB RAC4:25:283:33 16.9541ma3ERTVELDE
442.75DESMET Jeroen29BEL4:25:473:33 16.9378eli
443.715910088929580SARENS Sylvain33BELTEAM VTT 3 CANA4:25:493:33 16.93172ma1BLATON
444.7298LEUPE Jari23BEL4:25:513:33 16.9379eliJABBEKE
445.1DEVOS Bert33BEL4:25:593:33 16.92173ma1DEINZE
446.88BOTTELDOORN Stijn29BELMDS FOOD CLINIC4:26:013:33 16.9280eliGERAARDSBERGEN
447.7423DE JAEGHER Steven33BEL4:26:043:33 16.91174ma1ZEDELGEM
448.7467VERBEKE Renaat53BELRABC4:26:183:34 16.9042ma3BRASSCHAAT
449.7532VAN ROY Klaas41BEL4:26:343:34 16.88116ma2MEISE
450.7608SIMON Cussonet63BEL4:26:363:34 16.8843ma3WAIMES
451.7314FRANCOIS Christophe49BELARDENNES BIKE S4:26:533:34 16.86117ma2BOMBAYE
452.7567SMETS J-F49BEL4:27:243:34 16.83118ma2BLEGNY
453.7380DEKELVER Guy44BEL4:27:263:34 16.83119ma2TERVUREN
454.703310078417208GEOFFROY Samuel30BELCHAMPIONS RACIN4:27:313:35 16.82175ma1MOMIGNIES
455.7496VANHOOF Kris34BELFORZABIKERS4:27:503:35 16.80176ma1MOL
456.7382HOSKENS Johan48BEL4:27:553:35 16.80120ma2SINT NIKLAAS
457.7470KONIJN René43NLD4:27:563:35 16.80121ma2SCHERMERHORN
458.7360DELY Wouter35BELST BERNARDUS4:27:573:35 16.79177ma1IEPER
459.7316DE GRAAFF Oskar46NLD4:27:573:35 16.79122ma2DE MEERN
460.83FBLOCKX 40BELBANG4:28:243:35 16.7710dam
461.7458MOUSSAOUI Sofiane33FRABEAUVAIS BIKE4:28:553:36 16.73178ma1GOINCOURT
462.7184100 921 596 80UCCELLO Pascal49BELECW (BBIKES)4:29:033:36 16.73123ma2WELKENRAEDT
463.7387VERLEE Frank52BEL4:29:053:36 16.7244ma3WETTEREN
464.7369CLAESSENS Gregory33BELPAPEGAAIDUIKERS4:29:063:36 16.72179ma1WETTEREN
465.7411PASINETTI Thomas30BELTEAM BIKE4LIFE4:29:333:36 16.70180ma1GOUY LES PIETONS
466.7302ERNST Quentin28BELLES AMIS VTTIST4:29:363:36 16.6981eliHEUSY
467.7446OLBRECHTS Gijs44BEL4:29:453:36 16.68124ma2HUMBEEK
468.7448SIEVERDING Tom47NLD4:29:453:36 16.68125ma2AMSTERDAM
469.7589MIGNON Luc54BEL4:29:523:36 16.6845ma3MAMER
470.7368MORTIER Sven32BEL4:29:553:36 16.67181ma1POPERINGE
471.7698BART Van Der Laan33NLD4:30:403:37 16.63182ma1HM HEERHUGOWAARD
472.7596VANDERDOOD John38BELMTBOVERIJSE4:31:203:38 16.59183ma1HOEILAART
473.7602WINDMOLDERS Vincent37BEL4:31:333:38 16.57184ma1STEVOORT
474.7359BART Derksen38NLDPEDALEUR DOETIN4:31:373:38 16.57185ma1VARSSELDER
475.7604VAN GOOL Dennis37BEL4:32:033:38 16.54186ma1ARENDONK
476.7609DELOOF Sander31BEL4:32:073:38 16.54187ma1AALTER
477.7521DAVID Vanhaeke42BEL4:32:203:38 16.52126ma2PERK
478.7525VERTOMMEN Jurgen48BEL4:32:203:38 16.52127ma2HERENTALS
479.7680FVANDEN BRANDE Edith37BEL4:32:363:39 16.5111dam
480.7600VACCA Sandro43BEL4:33:253:39 16.46128ma2DESSEL
481.7300VERMEERSCH Gérald40BEL4:33:273:39 16.46129ma2BRAINE-L'ALLEUD
482.7292LEMPERE Lucien51BELGCVERVIERS4:33:443:39 16.4446ma3LAMBERMONT
483.7540BUSBY Tom39BEL4:33:483:40 16.44188ma1RAMSEL
484.7503VANDELACLUZE Stijn35BEL4:35:183:41 16.35189ma1OOSTKAMP
485.7085100 652 384 43DRIES Sven36BELINDIVIDUEEL4:35:203:41 16.34190ma1HAALTERT
486.7528PAERMENTIER Nicolas34BELTEAM BIKE4LIFE4:35:343:41 16.33191ma1NIVELLES
487.7479KAGO& CO Henk54BEL4:36:223:42 16.2847ma3GENK
488.7437FDE VISSER Ina37NLD4:36:263:42 16.2812damLUXEMBOURG
489.7456VAN DUN Ruud42NLD4:37:423:43 16.21130ma2LEIDEN
490.7471BAKKER Stephan48NLD4:37:443:43 16.20131ma2AALSMEER
491.7266LENAERTS Koen49BELMTB TEAM NO EXC4:37:473:43 16.20132ma2LILLE
492.7444FNEUQUELMAN Amandine33FRATEAM MARCASSINS4:37:583:43 16.1913damAUDRUICQ
493.7404SMITZ Wout42BELMOB4:39:453:44 16.09133ma2BIERBEEK
494.7440DELAERE Reinoud44BELAMB THEUX4:39:463:44 16.09134ma2THEUX
495.7691LAGRANGE Jurgen37BELKOORNBIKERS4:40:093:45 16.06192ma1
496.7614DE BACKER Robbe31BEL4:40:203:45 16.05193ma1TORHOUT
497.7286REENAERS Kris38BEL4:40:263:45 16.05194ma1SCHERPENHEUVEL-ZICHEM
498.766900990404FSEGERS Britt19BELINTRASYS MTB DR4:40:383:45 16.0414damRAEREN
499.7447LAMBRECHT Mario47BEL4:40:393:45 16.03135ma2BRUGGE ST ANDRIES
500.76704055SEGERS Tom50BELMTB DREAMTEAM 4:40:393:45 16.0348ma3AARTSELAAR
DNF: did not finish; DSQ: disqualified; Speed in km/h
Page: [1] 2